sensor_id;sensor_type;location;lat;lon;timestamp;P1;durP1;ratioP1;P2;durP2;ratioP2
68089;SDS011;54880;50.986;6.990;2023-03-20T00:02:05;23.67;;;10.30;;
68089;SDS011;54880;50.986;6.990;2023-03-20T00:04:31;21.65;;;9.60;;
68089;SDS011;54880;50.986;6.990;2023-03-20T00:06:57;19.80;;;9.48;;
68089;SDS011;54880;50.986;6.990;2023-03-20T00:09:22;21.43;;;9.70;;
68089;SDS011;54880;50.986;6.990;2023-03-20T00:11:50;23.05;;;10.25;;
68089;SDS011;54880;50.986;6.990;2023-03-20T00:14:16;22.40;;;10.45;;
68089;SDS011;54880;50.986;6.990;2023-03-20T00:16:42;20.55;;;10.05;;
68089;SDS011;54880;50.986;6.990;2023-03-20T00:19:21;23.30;;;10.40;;
68089;SDS011;54880;50.986;6.990;2023-03-20T00:21:56;22.40;;;10.73;;
68089;SDS011;54880;50.986;6.990;2023-03-20T00:24:21;23.88;;;10.13;;
68089;SDS011;54880;50.986;6.990;2023-03-20T00:26:47;24.00;;;10.57;;
68089;SDS011;54880;50.986;6.990;2023-03-20T00:29:25;22.23;;;10.35;;
68089;SDS011;54880;50.986;6.990;2023-03-20T00:31:51;23.05;;;9.73;;
68089;SDS011;54880;50.986;6.990;2023-03-20T00:34:18;20.67;;;9.97;;
68089;SDS011;54880;50.986;6.990;2023-03-20T00:36:44;24.08;;;9.95;;
68089;SDS011;54880;50.986;6.990;2023-03-20T00:39:10;21.30;;;9.63;;
68089;SDS011;54880;50.986;6.990;2023-03-20T00:46:29;18.60;;;8.50;;
68089;SDS011;54880;50.986;6.990;2023-03-20T00:48:56;20.05;;;8.63;;
68089;SDS011;54880;50.986;6.990;2023-03-20T00:51:22;20.50;;;9.00;;
68089;SDS011;54880;50.986;6.990;2023-03-20T00:53:47;20.33;;;9.23;;
68089;SDS011;54880;50.986;6.990;2023-03-20T00:56:29;20.13;;;9.37;;
68089;SDS011;54880;50.986;6.990;2023-03-20T00:58:55;20.50;;;9.15;;
68089;SDS011;54880;50.986;6.990;2023-03-20T01:01:22;21.17;;;9.15;;
68089;SDS011;54880;50.986;6.990;2023-03-20T01:03:47;21.50;;;8.97;;
68089;SDS011;54880;50.986;6.990;2023-03-20T01:06:13;23.30;;;10.63;;
68089;SDS011;54880;50.986;6.990;2023-03-20T01:08:38;22.60;;;10.63;;
68089;SDS011;54880;50.986;6.990;2023-03-20T01:11:04;21.43;;;9.87;;
68089;SDS011;54880;50.986;6.990;2023-03-20T01:13:29;23.38;;;9.75;;
68089;SDS011;54880;50.986;6.990;2023-03-20T01:15:56;22.38;;;10.48;;
68089;SDS011;54880;50.986;6.990;2023-03-20T01:18:25;24.63;;;9.83;;
68089;SDS011;54880;50.986;6.990;2023-03-20T01:20:51;22.50;;;10.23;;
68089;SDS011;54880;50.986;6.990;2023-03-20T01:23:17;23.08;;;11.05;;
68089;SDS011;54880;50.986;6.990;2023-03-20T01:25:42;24.38;;;11.10;;
68089;SDS011;54880;50.986;6.990;2023-03-20T01:28:15;21.95;;;9.93;;
68089;SDS011;54880;50.986;6.990;2023-03-20T01:30:41;21.92;;;10.02;;
68089;SDS011;54880;50.986;6.990;2023-03-20T01:33:11;22.50;;;10.82;;
68089;SDS011;54880;50.986;6.990;2023-03-20T01:35:37;21.48;;;9.57;;
68089;SDS011;54880;50.986;6.990;2023-03-20T01:38:08;22.92;;;10.07;;
68089;SDS011;54880;50.986;6.990;2023-03-20T01:43:12;23.45;;;10.45;;
68089;SDS011;54880;50.986;6.990;2023-03-20T01:45:38;22.40;;;9.55;;
68089;SDS011;54880;50.986;6.990;2023-03-20T01:48:11;20.60;;;9.48;;
68089;SDS011;54880;50.986;6.990;2023-03-20T01:50:39;22.88;;;10.60;;
68089;SDS011;54880;50.986;6.990;2023-03-20T01:55:42;26.75;;;11.32;;
68089;SDS011;54880;50.986;6.990;2023-03-20T01:58:12;26.17;;;11.77;;
68089;SDS011;54880;50.986;6.990;2023-03-20T02:00:38;26.80;;;11.00;;
68089;SDS011;54880;50.986;6.990;2023-03-20T02:03:09;25.83;;;11.48;;
68089;SDS011;54880;50.986;6.990;2023-03-20T02:06:01;25.43;;;11.20;;
68089;SDS011;54880;50.986;6.990;2023-03-20T02:08:47;23.85;;;11.63;;
68089;SDS011;54880;50.986;6.990;2023-03-20T02:11:13;26.60;;;11.35;;
68089;SDS011;54880;50.986;6.990;2023-03-20T02:13:39;24.85;;;11.43;;
68089;SDS011;54880;50.986;6.990;2023-03-20T02:16:14;22.27;;;10.77;;
68089;SDS011;54880;50.986;6.990;2023-03-20T02:18:53;26.33;;;11.10;;
68089;SDS011;54880;50.986;6.990;2023-03-20T02:24:00;23.37;;;10.70;;
68089;SDS011;54880;50.986;6.990;2023-03-20T02:26:41;24.55;;;11.25;;
68089;SDS011;54880;50.986;6.990;2023-03-20T02:29:18;25.50;;;11.75;;
68089;SDS011;54880;50.986;6.990;2023-03-20T02:42:34;22.38;;;10.88;;
68089;SDS011;54880;50.986;6.990;2023-03-20T02:45:18;25.05;;;11.68;;
68089;SDS011;54880;50.986;6.990;2023-03-20T02:47:51;23.80;;;11.38;;
68089;SDS011;54880;50.986;6.990;2023-03-20T02:50:24;23.70;;;10.77;;
68089;SDS011;54880;50.986;6.990;2023-03-20T02:52:57;25.30;;;11.05;;
68089;SDS011;54880;50.986;6.990;2023-03-20T02:58:02;22.77;;;11.05;;
68089;SDS011;54880;50.986;6.990;2023-03-20T03:00:33;23.17;;;11.02;;
68089;SDS011;54880;50.986;6.990;2023-03-20T03:03:08;24.17;;;10.73;;
68089;SDS011;54880;50.986;6.990;2023-03-20T03:08:20;23.02;;;11.55;;
68089;SDS011;54880;50.986;6.990;2023-03-20T03:10:51;23.08;;;11.60;;
68089;SDS011;54880;50.986;6.990;2023-03-20T03:13:18;25.77;;;11.60;;
68089;SDS011;54880;50.986;6.990;2023-03-20T03:15:45;22.03;;;10.83;;
68089;SDS011;54880;50.986;6.990;2023-03-20T03:18:16;23.90;;;10.70;;
68089;SDS011;54880;50.986;6.990;2023-03-20T03:20:43;25.70;;;11.65;;
68089;SDS011;54880;50.986;6.990;2023-03-20T03:23:11;24.08;;;10.93;;
68089;SDS011;54880;50.986;6.990;2023-03-20T03:25:38;28.40;;;10.75;;
68089;SDS011;54880;50.986;6.990;2023-03-20T03:28:18;22.37;;;10.97;;
68089;SDS011;54880;50.986;6.990;2023-03-20T03:30:48;25.85;;;11.98;;
68089;SDS011;54880;50.986;6.990;2023-03-20T03:33:17;24.25;;;10.73;;
68089;SDS011;54880;50.986;6.990;2023-03-20T03:35:44;22.35;;;10.50;;
68089;SDS011;54880;50.986;6.990;2023-03-20T03:38:20;22.67;;;10.90;;
68089;SDS011;54880;50.986;6.990;2023-03-20T03:40:52;24.05;;;11.07;;
68089;SDS011;54880;50.986;6.990;2023-03-20T03:43:28;24.83;;;10.75;;
68089;SDS011;54880;50.986;6.990;2023-03-20T03:45:56;27.10;;;11.43;;
68089;SDS011;54880;50.986;6.990;2023-03-20T03:48:34;24.55;;;11.05;;
68089;SDS011;54880;50.986;6.990;2023-03-20T03:51:02;25.27;;;11.47;;
68089;SDS011;54880;50.986;6.990;2023-03-20T03:53:31;25.02;;;12.57;;
68089;SDS011;54880;50.986;6.990;2023-03-20T03:56:00;25.48;;;11.55;;
68089;SDS011;54880;50.986;6.990;2023-03-20T03:58:30;24.77;;;11.95;;
68089;SDS011;54880;50.986;6.990;2023-03-20T04:00:57;23.27;;;10.35;;
68089;SDS011;54880;50.986;6.990;2023-03-20T04:03:26;26.57;;;12.23;;
68089;SDS011;54880;50.986;6.990;2023-03-20T04:05:53;24.75;;;11.10;;
68089;SDS011;54880;50.986;6.990;2023-03-20T04:08:19;27.02;;;12.15;;
68089;SDS011;54880;50.986;6.990;2023-03-20T04:10:45;24.10;;;11.63;;
68089;SDS011;54880;50.986;6.990;2023-03-20T04:13:10;25.93;;;11.57;;
68089;SDS011;54880;50.986;6.990;2023-03-20T04:15:36;26.52;;;11.82;;
68089;SDS011;54880;50.986;6.990;2023-03-20T04:18:03;26.92;;;11.82;;
68089;SDS011;54880;50.986;6.990;2023-03-20T04:20:29;23.80;;;10.88;;
68089;SDS011;54880;50.986;6.990;2023-03-20T04:22:54;24.57;;;11.13;;
68089;SDS011;54880;50.986;6.990;2023-03-20T04:25:21;26.07;;;11.20;;
68089;SDS011;54880;50.986;6.990;2023-03-20T04:27:49;21.67;;;9.48;;
68089;SDS011;54880;50.986;6.990;2023-03-20T04:30:33;22.35;;;10.70;;
68089;SDS011;54880;50.986;6.990;2023-03-20T04:33:13;21.27;;;9.77;;
68089;SDS011;54880;50.986;6.990;2023-03-20T04:35:45;21.85;;;10.15;;
68089;SDS011;54880;50.986;6.990;2023-03-20T04:38:12;21.35;;;9.43;;
68089;SDS011;54880;50.986;6.990;2023-03-20T04:40:39;20.73;;;10.18;;
68089;SDS011;54880;50.986;6.990;2023-03-20T04:43:04;22.20;;;10.20;;
68089;SDS011;54880;50.986;6.990;2023-03-20T04:45:30;23.23;;;10.30;;
68089;SDS011;54880;50.986;6.990;2023-03-20T04:47:55;25.10;;;11.40;;
68089;SDS011;54880;50.986;6.990;2023-03-20T04:50:21;23.45;;;10.85;;
68089;SDS011;54880;50.986;6.990;2023-03-20T04:52:49;20.70;;;10.70;;
68089;SDS011;54880;50.986;6.990;2023-03-20T04:55:14;23.53;;;10.50;;
68089;SDS011;54880;50.986;6.990;2023-03-20T04:57:40;27.63;;;10.30;;
68089;SDS011;54880;50.986;6.990;2023-03-20T05:00:08;22.93;;;10.27;;
68089;SDS011;54880;50.986;6.990;2023-03-20T05:02:35;25.33;;;10.13;;
68089;SDS011;54880;50.986;6.990;2023-03-20T05:05:01;24.97;;;10.03;;
68089;SDS011;54880;50.986;6.990;2023-03-20T05:07:26;23.58;;;9.82;;
68089;SDS011;54880;50.986;6.990;2023-03-20T05:09:58;22.37;;;9.77;;
68089;SDS011;54880;50.986;6.990;2023-03-20T05:12:24;23.85;;;10.68;;
68089;SDS011;54880;50.986;6.990;2023-03-20T05:15:08;23.20;;;10.05;;
68089;SDS011;54880;50.986;6.990;2023-03-20T05:17:48;23.55;;;10.40;;
68089;SDS011;54880;50.986;6.990;2023-03-20T05:20:32;22.65;;;9.88;;
68089;SDS011;54880;50.986;6.990;2023-03-20T05:23:30;23.70;;;9.97;;
68089;SDS011;54880;50.986;6.990;2023-03-20T05:26:17;26.35;;;9.48;;
68089;SDS011;54880;50.986;6.990;2023-03-20T05:29:01;24.05;;;9.80;;
68089;SDS011;54880;50.986;6.990;2023-03-20T05:31:45;21.65;;;9.48;;
68089;SDS011;54880;50.986;6.990;2023-03-20T05:34:25;21.42;;;8.57;;
68089;SDS011;54880;50.986;6.990;2023-03-20T05:37:09;22.37;;;9.63;;
68089;SDS011;54880;50.986;6.990;2023-03-20T05:39:47;23.55;;;9.45;;
68089;SDS011;54880;50.986;6.990;2023-03-20T05:42:31;21.75;;;9.75;;
68089;SDS011;54880;50.986;6.990;2023-03-20T05:45:22;19.35;;;8.02;;
68089;SDS011;54880;50.986;6.990;2023-03-20T05:47:53;20.13;;;8.32;;
68089;SDS011;54880;50.986;6.990;2023-03-20T05:50:31;22.23;;;8.60;;
68089;SDS011;54880;50.986;6.990;2023-03-20T05:53:05;21.90;;;8.95;;
68089;SDS011;54880;50.986;6.990;2023-03-20T05:55:45;18.38;;;8.80;;
68089;SDS011;54880;50.986;6.990;2023-03-20T05:58:30;20.90;;;8.75;;
68089;SDS011;54880;50.986;6.990;2023-03-20T06:01:05;23.35;;;9.27;;
68089;SDS011;54880;50.986;6.990;2023-03-20T06:03:49;19.67;;;8.40;;
68089;SDS011;54880;50.986;6.990;2023-03-20T06:06:31;23.63;;;9.98;;
68089;SDS011;54880;50.986;6.990;2023-03-20T06:08:57;21.07;;;8.93;;
68089;SDS011;54880;50.986;6.990;2023-03-20T06:11:22;19.90;;;8.70;;
68089;SDS011;54880;50.986;6.990;2023-03-20T06:13:47;22.92;;;8.70;;
68089;SDS011;54880;50.986;6.990;2023-03-20T06:16:13;17.98;;;7.80;;
68089;SDS011;54880;50.986;6.990;2023-03-20T06:18:39;21.00;;;8.30;;
68089;SDS011;54880;50.986;6.990;2023-03-20T06:21:05;19.48;;;9.02;;
68089;SDS011;54880;50.986;6.990;2023-03-20T06:23:31;18.88;;;7.90;;
68089;SDS011;54880;50.986;6.990;2023-03-20T06:25:59;18.42;;;7.97;;
68089;SDS011;54880;50.986;6.990;2023-03-20T06:28:25;18.58;;;8.40;;
68089;SDS011;54880;50.986;6.990;2023-03-20T06:30:58;24.33;;;8.67;;
68089;SDS011;54880;50.986;6.990;2023-03-20T06:33:24;21.67;;;8.65;;
68089;SDS011;54880;50.986;6.990;2023-03-20T06:35:55;22.37;;;8.90;;
68089;SDS011;54880;50.986;6.990;2023-03-20T06:38:22;20.65;;;8.52;;
68089;SDS011;54880;50.986;6.990;2023-03-20T06:40:48;20.67;;;9.18;;
68089;SDS011;54880;50.986;6.990;2023-03-20T06:43:16;21.15;;;8.32;;
68089;SDS011;54880;50.986;6.990;2023-03-20T06:45:48;22.08;;;9.75;;
68089;SDS011;54880;50.986;6.990;2023-03-20T06:48:20;20.20;;;8.97;;
68089;SDS011;54880;50.986;6.990;2023-03-20T06:50:49;21.08;;;8.85;;
68089;SDS011;54880;50.986;6.990;2023-03-20T06:53:17;21.58;;;9.18;;
68089;SDS011;54880;50.986;6.990;2023-03-20T06:55:49;24.15;;;9.63;;
68089;SDS011;54880;50.986;6.990;2023-03-20T06:58:15;20.77;;;9.40;;
68089;SDS011;54880;50.986;6.990;2023-03-20T07:00:41;20.40;;;9.30;;
68089;SDS011;54880;50.986;6.990;2023-03-20T07:03:07;24.40;;;9.75;;
68089;SDS011;54880;50.986;6.990;2023-03-20T07:05:33;22.40;;;9.67;;
68089;SDS011;54880;50.986;6.990;2023-03-20T07:08:00;23.58;;;10.70;;
68089;SDS011;54880;50.986;6.990;2023-03-20T07:10:26;20.57;;;9.60;;
68089;SDS011;54880;50.986;6.990;2023-03-20T07:12:52;22.00;;;9.80;;
68089;SDS011;54880;50.986;6.990;2023-03-20T07:15:17;24.83;;;10.53;;
68089;SDS011;54880;50.986;6.990;2023-03-20T07:17:43;24.43;;;10.40;;
68089;SDS011;54880;50.986;6.990;2023-03-20T07:20:08;20.98;;;9.80;;
68089;SDS011;54880;50.986;6.990;2023-03-20T07:22:34;27.30;;;10.00;;
68089;SDS011;54880;50.986;6.990;2023-03-20T07:25:16;25.42;;;11.07;;
68089;SDS011;54880;50.986;6.990;2023-03-20T07:27:42;21.95;;;9.63;;
68089;SDS011;54880;50.986;6.990;2023-03-20T07:30:14;23.38;;;9.55;;
68089;SDS011;54880;50.986;6.990;2023-03-20T07:32:39;22.33;;;9.37;;
68089;SDS011;54880;50.986;6.990;2023-03-20T07:35:05;20.47;;;9.07;;
68089;SDS011;54880;50.986;6.990;2023-03-20T07:37:31;24.83;;;9.35;;
68089;SDS011;54880;50.986;6.990;2023-03-20T07:40:00;19.47;;;8.37;;
68089;SDS011;54880;50.986;6.990;2023-03-20T07:42:30;17.55;;;8.13;;
68089;SDS011;54880;50.986;6.990;2023-03-20T07:44:58;18.60;;;8.02;;
68089;SDS011;54880;50.986;6.990;2023-03-20T07:47:23;15.47;;;7.60;;
68089;SDS011;54880;50.986;6.990;2023-03-20T07:49:48;16.37;;;7.10;;
68089;SDS011;54880;50.986;6.990;2023-03-20T07:52:14;18.23;;;7.07;;
68089;SDS011;54880;50.986;6.990;2023-03-20T07:54:39;14.40;;;6.70;;
68089;SDS011;54880;50.986;6.990;2023-03-20T07:57:04;14.77;;;6.33;;
68089;SDS011;54880;50.986;6.990;2023-03-20T07:59:30;17.10;;;6.80;;
68089;SDS011;54880;50.986;6.990;2023-03-20T08:01:55;16.50;;;6.97;;
68089;SDS011;54880;50.986;6.990;2023-03-20T08:04:21;14.80;;;6.17;;
68089;SDS011;54880;50.986;6.990;2023-03-20T08:06:47;14.00;;;6.40;;
68089;SDS011;54880;50.986;6.990;2023-03-20T08:09:12;15.23;;;6.80;;
68089;SDS011;54880;50.986;6.990;2023-03-20T08:11:37;16.33;;;6.00;;
68089;SDS011;54880;50.986;6.990;2023-03-20T08:14:03;13.73;;;5.90;;
68089;SDS011;54880;50.986;6.990;2023-03-20T08:16:28;12.13;;;5.37;;
68089;SDS011;54880;50.986;6.990;2023-03-20T08:18:53;14.20;;;5.17;;
68089;SDS011;54880;50.986;6.990;2023-03-20T08:21:25;14.45;;;5.45;;
68089;SDS011;54880;50.986;6.990;2023-03-20T08:23:51;12.85;;;5.07;;
68089;SDS011;54880;50.986;6.990;2023-03-20T08:26:16;14.00;;;5.13;;
68089;SDS011;54880;50.986;6.990;2023-03-20T08:28:41;11.90;;;5.20;;
68089;SDS011;54880;50.986;6.990;2023-03-20T08:31:07;15.70;;;5.13;;
68089;SDS011;54880;50.986;6.990;2023-03-20T08:33:33;15.15;;;5.60;;
68089;SDS011;54880;50.986;6.990;2023-03-20T08:35:58;15.00;;;5.30;;
68089;SDS011;54880;50.986;6.990;2023-03-20T08:38:23;12.20;;;4.80;;
68089;SDS011;54880;50.986;6.990;2023-03-20T08:40:49;13.73;;;5.30;;
68089;SDS011;54880;50.986;6.990;2023-03-20T08:43:14;15.07;;;5.67;;
68089;SDS011;54880;50.986;6.990;2023-03-20T08:45:39;14.77;;;5.40;;
68089;SDS011;54880;50.986;6.990;2023-03-20T08:48:05;11.90;;;5.20;;
68089;SDS011;54880;50.986;6.990;2023-03-20T08:50:31;13.47;;;5.13;;
68089;SDS011;54880;50.986;6.990;2023-03-20T08:52:56;17.20;;;6.65;;
68089;SDS011;54880;50.986;6.990;2023-03-20T08:55:22;14.63;;;5.43;;
68089;SDS011;54880;50.986;6.990;2023-03-20T08:57:47;16.93;;;6.07;;
68089;SDS011;54880;50.986;6.990;2023-03-20T09:00:13;14.13;;;5.70;;
68089;SDS011;54880;50.986;6.990;2023-03-20T09:02:39;16.92;;;6.10;;
68089;SDS011;54880;50.986;6.990;2023-03-20T09:05:05;15.33;;;6.00;;
68089;SDS011;54880;50.986;6.990;2023-03-20T09:07:31;14.85;;;6.13;;
68089;SDS011;54880;50.986;6.990;2023-03-20T09:09:56;12.77;;;6.20;;
68089;SDS011;54880;50.986;6.990;2023-03-20T09:12:21;14.17;;;5.97;;
68089;SDS011;54880;50.986;6.990;2023-03-20T09:14:47;15.60;;;6.10;;
68089;SDS011;54880;50.986;6.990;2023-03-20T09:17:12;14.30;;;5.97;;
68089;SDS011;54880;50.986;6.990;2023-03-20T09:19:37;15.23;;;5.87;;
68089;SDS011;54880;50.986;6.990;2023-03-20T09:22:11;13.52;;;5.90;;
68089;SDS011;54880;50.986;6.990;2023-03-20T09:24:36;13.52;;;5.70;;
68089;SDS011;54880;50.986;6.990;2023-03-20T09:27:01;16.23;;;5.93;;
68089;SDS011;54880;50.986;6.990;2023-03-20T09:29:27;18.87;;;6.60;;
68089;SDS011;54880;50.986;6.990;2023-03-20T09:31:52;17.63;;;6.70;;
68089;SDS011;54880;50.986;6.990;2023-03-20T09:34:17;15.20;;;6.13;;
68089;SDS011;54880;50.986;6.990;2023-03-20T09:36:42;16.87;;;5.73;;
68089;SDS011;54880;50.986;6.990;2023-03-20T09:39:08;18.90;;;6.97;;
68089;SDS011;54880;50.986;6.990;2023-03-20T09:41:33;14.20;;;6.57;;
68089;SDS011;54880;50.986;6.990;2023-03-20T09:46:49;21.20;;;7.22;;
68089;SDS011;54880;50.986;6.990;2023-03-20T09:51:59;16.13;;;7.78;;
68089;SDS011;54880;50.986;6.990;2023-03-20T09:54:28;21.90;;;8.30;;
68089;SDS011;54880;50.986;6.990;2023-03-20T09:56:57;16.00;;;7.40;;
68089;SDS011;54880;50.986;6.990;2023-03-20T09:59:24;17.60;;;6.93;;
68089;SDS011;54880;50.986;6.990;2023-03-20T10:01:54;19.93;;;7.37;;
68089;SDS011;54880;50.986;6.990;2023-03-20T10:04:20;19.15;;;7.43;;
68089;SDS011;54880;50.986;6.990;2023-03-20T10:06:47;16.63;;;7.57;;
68089;SDS011;54880;50.986;6.990;2023-03-20T10:09:26;16.17;;;7.03;;
68089;SDS011;54880;50.986;6.990;2023-03-20T10:11:57;17.33;;;7.53;;
68089;SDS011;54880;50.986;6.990;2023-03-20T10:16:56;15.47;;;7.97;;
68089;SDS011;54880;50.986;6.990;2023-03-20T10:22:56;16.95;;;7.18;;
68089;SDS011;54880;50.986;6.990;2023-03-20T10:27:42;14.75;;;7.22;;
68089;SDS011;54880;50.986;6.990;2023-03-20T10:33:07;18.42;;;7.45;;
68089;SDS011;54880;50.986;6.990;2023-03-20T10:38:12;16.77;;;6.77;;
68089;SDS011;54880;50.986;6.990;2023-03-20T10:40:41;18.05;;;6.53;;
68089;SDS011;54880;50.986;6.990;2023-03-20T10:43:30;13.20;;;5.73;;
68089;SDS011;54880;50.986;6.990;2023-03-20T10:45:55;21.67;;;6.15;;
68089;SDS011;54880;50.986;6.990;2023-03-20T10:48:26;14.63;;;5.53;;
68089;SDS011;54880;50.986;6.990;2023-03-20T10:50:54;11.60;;;4.68;;
68089;SDS011;54880;50.986;6.990;2023-03-20T10:53:36;15.05;;;5.13;;
68089;SDS011;54880;50.986;6.990;2023-03-20T10:56:07;11.90;;;5.00;;
68089;SDS011;54880;50.986;6.990;2023-03-20T10:58:39;12.00;;;4.78;;
68089;SDS011;54880;50.986;6.990;2023-03-20T11:01:04;11.70;;;4.00;;
68089;SDS011;54880;50.986;6.990;2023-03-20T11:03:30;10.23;;;4.20;;
68089;SDS011;54880;50.986;6.990;2023-03-20T11:06:04;10.70;;;4.15;;
68089;SDS011;54880;50.986;6.990;2023-03-20T11:08:38;10.50;;;3.60;;
68089;SDS011;54880;50.986;6.990;2023-03-20T11:11:04;10.90;;;2.83;;
68089;SDS011;54880;50.986;6.990;2023-03-20T11:15:55;9.20;;;2.83;;
68089;SDS011;54880;50.986;6.990;2023-03-20T11:18:23;8.77;;;2.63;;
68089;SDS011;54880;50.986;6.990;2023-03-20T11:20:53;8.30;;;2.80;;
68089;SDS011;54880;50.986;6.990;2023-03-20T11:23:19;13.15;;;2.85;;
68089;SDS011;54880;50.986;6.990;2023-03-20T11:25:51;7.22;;;2.10;;
68089;SDS011;54880;50.986;6.990;2023-03-20T11:28:18;8.07;;;2.30;;
68089;SDS011;54880;50.986;6.990;2023-03-20T11:30:43;8.18;;;2.15;;
68089;SDS011;54880;50.986;6.990;2023-03-20T11:33:09;8.95;;;2.70;;
68089;SDS011;54880;50.986;6.990;2023-03-20T11:35:34;9.32;;;2.53;;
68089;SDS011;54880;50.986;6.990;2023-03-20T11:38:12;8.40;;;2.40;;
68089;SDS011;54880;50.986;6.990;2023-03-20T11:40:38;8.68;;;2.65;;
68089;SDS011;54880;50.986;6.990;2023-03-20T11:43:08;12.57;;;2.40;;
68089;SDS011;54880;50.986;6.990;2023-03-20T11:45:35;12.57;;;2.50;;
68089;SDS011;54880;50.986;6.990;2023-03-20T11:48:01;7.87;;;2.70;;
68089;SDS011;54880;50.986;6.990;2023-03-20T11:50:31;9.68;;;2.80;;
68089;SDS011;54880;50.986;6.990;2023-03-20T11:53:00;8.50;;;2.95;;
68089;SDS011;54880;50.986;6.990;2023-03-20T11:55:32;11.32;;;2.90;;
68089;SDS011;54880;50.986;6.990;2023-03-20T11:57:59;8.57;;;2.53;;
68089;SDS011;54880;50.986;6.990;2023-03-20T12:00:29;7.97;;;2.13;;
68089;SDS011;54880;50.986;6.990;2023-03-20T12:02:59;10.43;;;2.65;;
68089;SDS011;54880;50.986;6.990;2023-03-20T12:05:34;7.23;;;2.10;;
68089;SDS011;54880;50.986;6.990;2023-03-20T12:10:27;7.17;;;2.60;;
68089;SDS011;54880;50.986;6.990;2023-03-20T12:12:55;7.97;;;2.55;;
68089;SDS011;54880;50.986;6.990;2023-03-20T12:15:26;10.73;;;3.42;;
68089;SDS011;54880;50.986;6.990;2023-03-20T12:18:03;12.77;;;3.20;;
68089;SDS011;54880;50.986;6.990;2023-03-20T12:28:23;8.90;;;3.33;;
68089;SDS011;54880;50.986;6.990;2023-03-20T12:30:58;8.57;;;2.72;;
68089;SDS011;54880;50.986;6.990;2023-03-20T12:33:39;9.93;;;2.80;;
68089;SDS011;54880;50.986;6.990;2023-03-20T12:36:13;8.88;;;2.70;;
68089;SDS011;54880;50.986;6.990;2023-03-20T12:38:39;9.57;;;2.92;;
68089;SDS011;54880;50.986;6.990;2023-03-20T12:43:36;8.82;;;2.97;;
68089;SDS011;54880;50.986;6.990;2023-03-20T12:46:23;9.50;;;3.27;;
68089;SDS011;54880;50.986;6.990;2023-03-20T12:48:51;10.25;;;2.65;;
68089;SDS011;54880;50.986;6.990;2023-03-20T12:51:34;9.38;;;3.00;;
68089;SDS011;54880;50.986;6.990;2023-03-20T13:04:23;6.40;;;1.60;;
68089;SDS011;54880;50.986;6.990;2023-03-20T13:06:59;6.25;;;1.80;;
68089;SDS011;54880;50.986;6.990;2023-03-20T13:12:18;7.80;;;1.80;;
68089;SDS011;54880;50.986;6.990;2023-03-20T13:22:36;11.25;;;1.80;;
68089;SDS011;54880;50.986;6.990;2023-03-20T13:25:32;12.38;;;2.05;;
68089;SDS011;54880;50.986;6.990;2023-03-20T13:27:57;8.65;;;1.90;;
68089;SDS011;54880;50.986;6.990;2023-03-20T13:30:35;6.80;;;1.83;;
68089;SDS011;54880;50.986;6.990;2023-03-20T13:35:52;7.82;;;1.40;;
68089;SDS011;54880;50.986;6.990;2023-03-20T13:38:21;6.18;;;1.70;;
68089;SDS011;54880;50.986;6.990;2023-03-20T13:40:57;7.55;;;1.80;;
68089;SDS011;54880;50.986;6.990;2023-03-20T13:43:39;10.55;;;1.88;;
68089;SDS011;54880;50.986;6.990;2023-03-20T13:46:08;9.90;;;1.97;;
68089;SDS011;54880;50.986;6.990;2023-03-20T13:48:36;8.68;;;1.65;;
68089;SDS011;54880;50.986;6.990;2023-03-20T13:51:20;7.38;;;2.10;;
68089;SDS011;54880;50.986;6.990;2023-03-20T14:04:15;7.78;;;1.75;;
68089;SDS011;54880;50.986;6.990;2023-03-20T14:09:29;7.85;;;1.90;;
68089;SDS011;54880;50.986;6.990;2023-03-20T14:11:57;8.30;;;1.80;;
68089;SDS011;54880;50.986;6.990;2023-03-20T14:14:27;8.02;;;1.80;;
68089;SDS011;54880;50.986;6.990;2023-03-20T14:17:06;7.97;;;1.88;;
68089;SDS011;54880;50.986;6.990;2023-03-20T14:19:34;5.83;;;1.37;;
68089;SDS011;54880;50.986;6.990;2023-03-20T14:22:00;7.75;;;1.60;;
68089;SDS011;54880;50.986;6.990;2023-03-20T14:24:26;8.17;;;2.10;;
68089;SDS011;54880;50.986;6.990;2023-03-20T14:26:55;10.05;;;1.88;;
68089;SDS011;54880;50.986;6.990;2023-03-20T14:31:53;9.90;;;1.73;;
68089;SDS011;54880;50.986;6.990;2023-03-20T14:34:26;8.27;;;1.60;;
68089;SDS011;54880;50.986;6.990;2023-03-20T14:42:06;8.32;;;2.13;;
68089;SDS011;54880;50.986;6.990;2023-03-20T14:44:44;8.82;;;1.92;;
68089;SDS011;54880;50.986;6.990;2023-03-20T14:54:38;7.27;;;2.20;;
68089;SDS011;54880;50.986;6.990;2023-03-20T14:57:08;11.43;;;2.07;;
68089;SDS011;54880;50.986;6.990;2023-03-20T14:59:33;7.80;;;1.90;;
68089;SDS011;54880;50.986;6.990;2023-03-20T15:02:00;11.18;;;2.33;;
68089;SDS011;54880;50.986;6.990;2023-03-20T15:09:19;10.48;;;1.98;;
68089;SDS011;54880;50.986;6.990;2023-03-20T15:11:46;12.07;;;1.60;;
68089;SDS011;54880;50.986;6.990;2023-03-20T15:14:14;9.80;;;2.22;;
68089;SDS011;54880;50.986;6.990;2023-03-20T15:16:42;8.30;;;2.00;;
68089;SDS011;54880;50.986;6.990;2023-03-20T15:19:16;11.43;;;2.38;;
68089;SDS011;54880;50.986;6.990;2023-03-20T15:21:43;9.37;;;1.93;;
68089;SDS011;54880;50.986;6.990;2023-03-20T15:24:15;10.02;;;2.30;;
68089;SDS011;54880;50.986;6.990;2023-03-20T15:26:43;6.90;;;1.90;;
68089;SDS011;54880;50.986;6.990;2023-03-20T15:29:09;10.17;;;2.00;;
68089;SDS011;54880;50.986;6.990;2023-03-20T15:31:37;10.48;;;1.98;;
68089;SDS011;54880;50.986;6.990;2023-03-20T15:34:07;10.48;;;2.50;;
68089;SDS011;54880;50.986;6.990;2023-03-20T15:36:33;8.17;;;2.20;;
68089;SDS011;54880;50.986;6.990;2023-03-20T15:39:12;6.53;;;1.70;;
68089;SDS011;54880;50.986;6.990;2023-03-20T15:41:38;10.00;;;1.90;;
68089;SDS011;54880;50.986;6.990;2023-03-20T15:46:35;6.60;;;2.00;;
68089;SDS011;54880;50.986;6.990;2023-03-20T15:49:00;10.73;;;1.80;;
68089;SDS011;54880;50.986;6.990;2023-03-20T15:51:25;7.80;;;1.60;;
68089;SDS011;54880;50.986;6.990;2023-03-20T15:53:51;8.10;;;1.80;;
68089;SDS011;54880;50.986;6.990;2023-03-20T15:56:17;10.17;;;2.03;;
68089;SDS011;54880;50.986;6.990;2023-03-20T15:58:43;11.02;;;2.50;;
68089;SDS011;54880;50.986;6.990;2023-03-20T16:01:10;9.57;;;1.90;;
68089;SDS011;54880;50.986;6.990;2023-03-20T16:03:38;11.75;;;2.45;;
68089;SDS011;54880;50.986;6.990;2023-03-20T16:06:06;6.88;;;1.73;;
68089;SDS011;54880;50.986;6.990;2023-03-20T16:08:32;10.30;;;1.90;;
68089;SDS011;54880;50.986;6.990;2023-03-20T16:11:05;9.63;;;1.90;;
68089;SDS011;54880;50.986;6.990;2023-03-20T16:13:38;9.77;;;2.20;;
68089;SDS011;54880;50.986;6.990;2023-03-20T16:16:05;9.02;;;2.28;;
68089;SDS011;54880;50.986;6.990;2023-03-20T16:18:33;12.45;;;2.50;;
68089;SDS011;54880;50.986;6.990;2023-03-20T16:21:00;11.63;;;2.30;;
68089;SDS011;54880;50.986;6.990;2023-03-20T16:26:19;8.47;;;2.10;;
68089;SDS011;54880;50.986;6.990;2023-03-20T16:28:45;8.18;;;2.08;;
68089;SDS011;54880;50.986;6.990;2023-03-20T16:34:16;8.75;;;2.25;;
68089;SDS011;54880;50.986;6.990;2023-03-20T16:42:40;7.43;;;1.80;;
68089;SDS011;54880;50.986;6.990;2023-03-20T16:45:07;8.83;;;2.20;;
68089;SDS011;54880;50.986;6.990;2023-03-20T16:47:38;8.55;;;2.25;;
68089;SDS011;54880;50.986;6.990;2023-03-20T16:50:20;11.20;;;2.38;;
68089;SDS011;54880;50.986;6.990;2023-03-20T16:52:50;9.68;;;2.03;;
68089;SDS011;54880;50.986;6.990;2023-03-20T16:55:18;10.90;;;2.45;;
68089;SDS011;54880;50.986;6.990;2023-03-20T16:57:48;8.90;;;2.13;;
68089;SDS011;54880;50.986;6.990;2023-03-20T17:00:19;9.60;;;2.38;;
68089;SDS011;54880;50.986;6.990;2023-03-20T17:02:48;7.28;;;2.25;;